Time;durP1;ratioP1;P1;durP2;ratioP2;P2;SDS_P1;SDS_P2;PMS_P1;PMS_P2;Temp;Humidity;BMP_temperature;BMP_pressure;BME280_temperature;BME280_humidity;BME280_pressure;Samples;Min_cycle;Max_cycle;Signal;HPM_P1;HPM_P2
2023/05/20 00:00:57;;;;;;;;;;;;;;;20.79;75.55;99496.16;5041299;28;19974;-40
2023/05/20 00:03:22;;;;;;;;;;;;;;;21.82;72.97;99481.25;5041503;28;19939;-39
2023/05/20 00:05:47;;;;;;;;;;;;;;;22.89;69.55;99448.94;5023840;28;20301;-40
2023/05/20 00:08:13;;;;;;;;;;;;;;;23.22;67.69;99444.75;5040062;28;19932;-40
2023/05/20 00:10:38;;;;;;;;;;;;;;;23.11;66.92;99439.47;5041192;28;20424;-39
2023/05/20 00:13:03;;;;;;;;;;;;;;;22.90;66.35;99444.56;5041995;28;19933;-39
2023/05/20 00:15:29;;;;;;;;;;;;;;;21.68;71.23;99474.38;5042599;28;19917;-40
2023/05/20 00:17:54;;;;;;;;;;;;;;;22.05;70.60;99461.25;5042135;28;20007;-39
2023/05/20 00:20:20;;;;;;;;;;;;;;;22.04;70.62;99467.47;5041221;28;20079;-40
2023/05/20 00:22:45;;;;;;;;;;;;;;;21.86;73.96;99484.50;5041942;28;20377;-39
2023/05/20 00:25:13;;;;;;;;;;;;;;;21.87;75.22;99478.31;5041860;28;20362;-39
2023/05/20 00:27:38;;;;;;;;;;;;;;;21.88;74.67;99480.00;5042124;28;19925;-39
2023/05/20 00:30:04;;;;;;;;;;;;;;;22.44;71.96;99461.97;5042305;28;20528;-39
2023/05/20 00:32:29;;;;;;;;;;;;;;;22.97;70.98;99454.47;5041763;28;19920;-39
2023/05/20 00:34:56;;;;;;;;;;;;;;;22.37;70.16;99465.16;5042431;28;19964;-39
2023/05/20 00:37:21;;;;;;;;;;;;;;;22.14;70.73;99473.69;5041988;28;19927;-39
2023/05/20 00:39:46;;;;;;;;;;;;;;;22.50;71.21;99464.13;5041346;28;19920;-40
2023/05/20 00:42:18;;;;;;;;;;;;;;;22.25;73.44;99477.38;5041926;28;19920;-39
2023/05/20 00:44:43;;;;;;;;;;;;;;;22.83;69.66;99452.06;5041833;28;19970;-40
2023/05/20 00:47:08;;;;;;;;;;;;;;;22.66;70.58;99460.38;5041330;28;19920;-39
2023/05/20 00:49:33;;;;;;;;;;;;;;;22.88;69.11;99442.03;5024551;28;19917;-39
2023/05/20 00:51:59;;;;;;;;;;;;;;;22.87;70.00;99448.22;5040511;28;19959;-40
2023/05/20 00:54:24;;;;;;;;;;;;;;;22.80;69.06;99436.53;5041748;28;19917;-40
2023/05/20 00:56:49;;;;;;;;;;;;;;;22.93;69.06;99441.69;5041196;28;19928;-40
2023/05/20 00:59:15;;;;;;;;;;;;;;;22.59;69.87;99443.41;5022972;28;19950;-39
2023/05/20 01:01:40;;;;;;;;;;;;;;;22.79;70.34;99455.03;5023540;28;19921;-40
2023/05/20 01:04:05;;;;;;;;;;;;;;;22.48;69.95;99442.41;5024417;28;19921;-39
2023/05/20 01:06:32;;;;;;;;;;;;;;;22.52;70.05;99438.59;5040095;28;19921;-39
2023/05/20 01:08:57;;;;;;;;;;;;;;;22.75;69.88;99431.63;5041638;28;19923;-39
2023/05/20 01:11:25;;;;;;;;;;;;;;;22.40;70.37;99447.41;5041757;28;19912;-39
2023/05/20 01:13:53;;;;;;;;;;;;;;;22.44;71.32;99446.22;5040868;28;19916;-39
2023/05/20 01:16:18;;;;;;;;;;;;;;;22.20;73.04;99458.50;5041283;28;19913;-39
2023/05/20 01:18:43;;;;;;;;;;;;;;;22.38;71.86;99441.44;5021115;28;19923;-40
2023/05/20 01:21:10;;;;;;;;;;;;;;;22.13;72.06;99437.09;5021193;28;19991;-39
2023/05/20 01:23:39;;;;;;;;;;;;;;;22.20;74.13;99453.25;5040943;28;19925;-40
2023/05/20 01:26:05;;;;;;;;;;;;;;;22.31;71.68;99434.97;5039895;28;20430;-39
2023/05/20 01:28:30;;;;;;;;;;;;;;;22.19;74.46;99459.41;5041164;28;19996;-39
2023/05/20 01:30:55;;;;;;;;;;;;;;;21.98;73.58;99446.91;5040113;28;19956;-39
2023/05/20 01:33:22;;;;;;;;;;;;;;;22.13;72.40;99437.94;5040137;28;20054;-39
2023/05/20 01:35:47;;;;;;;;;;;;;;;22.00;73.56;99442.41;5022865;28;19917;-39
2023/05/20 01:38:12;;;;;;;;;;;;;;;21.57;74.57;99450.69;5022302;28;19931;-39
2023/05/20 01:40:37;;;;;;;;;;;;;;;21.59;74.99;99446.19;5040485;28;19932;-40
2023/05/20 01:43:03;;;;;;;;;;;;;;;20.91;78.21;99473.53;5022411;28;20777;-40
2023/05/20 01:45:28;;;;;;;;;;;;;;;20.88;79.23;99469.34;5039056;28;19920;-39
2023/05/20 01:47:53;;;;;;;;;;;;;;;20.66;80.14;99475.19;5020984;28;19921;-39
2023/05/20 01:50:18;;;;;;;;;;;;;;;20.61;82.19;99481.66;5039201;28;19940;-39
2023/05/20 01:52:44;;;;;;;;;;;;;;;20.33;82.17;99477.38;5039036;28;19921;-39
2023/05/20 01:55:09;;;;;;;;;;;;;;;20.83;79.38;99454.91;5040168;28;20575;-40
2023/05/20 01:57:35;;;;;;;;;;;;;;;21.44;78.77;99450.75;5040191;28;20220;-39
2023/05/20 02:00:00;;;;;;;;;;;;;;;19.76;81.41;99478.34;5039717;28;19920;-39
2023/05/20 02:02:25;;;;;;;;;;;;;;;18.48;86.54;99513.72;5039017;28;19921;-39
2023/05/20 02:04:52;;;;;;;;;;;;;;;20.03;85.97;99489.69;5037333;28;19925;-39
2023/05/20 02:07:17;;;;;;;;;;;;;;;20.03;82.85;99468.78;5039230;28;19932;-39
2023/05/20 02:09:43;;;;;;;;;;;;;;;20.37;86.11;99489.31;5022071;28;19921;-39
2023/05/20 02:12:08;;;;;;;;;;;;;;;19.63;83.62;99473.84;5038921;28;20267;-40
2023/05/20 02:14:34;;;;;;;;;;;;;;;19.61;84.86;99483.56;5021071;28;20485;-39
2023/05/20 02:16:59;;;;;;;;;;;;;;;19.10;92.06;99537.16;5039158;28;21162;-39
2023/05/20 02:19:24;;;;;;;;;;;;;;;19.26;88.56;99497.94;5036094;28;20373;-39
2023/05/20 02:21:50;;;;;;;;;;;;;;;20.06;86.72;99481.63;5039867;28;19943;-39
2023/05/20 02:24:15;;;;;;;;;;;;;;;19.76;86.39;99486.19;5038547;28;20023;-39
2023/05/20 02:26:40;;;;;;;;;;;;;;;19.23;89.51;99517.22;5039359;28;19975;-39
2023/05/20 02:29:06;;;;;;;;;;;;;;;19.50;86.73;99493.84;5039785;28;19923;-39
2023/05/20 02:31:31;;;;;;;;;;;;;;;19.37;85.76;99487.69;5039398;28;19924;-39
2023/05/20 02:33:56;;;;;;;;;;;;;;;19.28;89.57;99514.34;5037989;28;20475;-39
2023/05/20 02:36:21;;;;;;;;;;;;;;;19.75;87.70;99494.94;5038727;28;20007;-39
2023/05/20 02:38:47;;;;;;;;;;;;;;;19.77;87.35;99495.69;5039650;28;20020;-39
2023/05/20 02:41:12;;;;;;;;;;;;;;;20.47;82.20;99459.81;5039965;28;19925;-39
2023/05/20 02:43:37;;;;;;;;;;;;;;;20.46;84.39;99471.25;5021824;28;19920;-39
2023/05/20 02:46:03;;;;;;;;;;;;;;;20.35;82.94;99465.88;5038817;28;19916;-39
2023/05/20 02:48:28;;;;;;;;;;;;;;;20.17;85.45;99477.50;5039763;28;20374;-39
2023/05/20 02:50:53;;;;;;;;;;;;;;;19.63;82.16;99457.34;5038524;28;19959;-39
2023/05/20 02:53:18;;;;;;;;;;;;;;;20.18;84.55;99468.72;5038789;28;19921;-39
2023/05/20 02:55:46;;;;;;;;;;;;;;;19.35;87.44;99502.59;5039553;28;19923;-39
2023/05/20 02:58:12;;;;;;;;;;;;;;;19.43;82.76;99455.94;5038599;28;20390;-39
2023/05/20 03:00:39;;;;;;;;;;;;;;;18.46;90.20;99521.63;5021202;28;20294;-40
2023/05/20 03:03:05;;;;;;;;;;;;;;;18.58;91.22;99515.69;5039292;28;19927;-39
2023/05/20 03:05:31;;;;;;;;;;;;;;;19.71;87.23;99464.75;5038859;28;19921;-39
2023/05/20 03:07:56;;;;;;;;;;;;;;;19.28;85.83;99472.56;5039471;28;19963;-39
2023/05/20 03:10:21;;;;;;;;;;;;;;;20.31;85.64;99469.59;5021213;28;20209;-39
2023/05/20 03:12:47;;;;;;;;;;;;;;;19.68;86.03;99477.94;5038698;28;19916;-39
2023/05/20 03:15:12;;;;;;;;;;;;;;;20.24;85.70;99465.72;5039201;28;19917;-39
2023/05/20 03:17:37;;;;;;;;;;;;;;;19.62;85.48;99476.56;5038916;28;19920;-39
2023/05/20 03:20:03;;;;;;;;;;;;;;;18.71;87.91;99510.63;5037395;28;19924;-39
2023/05/20 03:22:28;;;;;;;;;;;;;;;19.14;89.39;99497.72;5038915;28;19932;-39
2023/05/20 03:24:53;;;;;;;;;;;;;;;19.61;85.85;99465.28;5021028;28;20408;-39
2023/05/20 03:27:20;;;;;;;;;;;;;;;18.19;92.96;99529.22;5038405;28;20378;-39
2023/05/20 03:29:47;;;;;;;;;;;;;;;17.17;97.08;99556.25;5042283;28;19939;-39
2023/05/20 03:32:12;;;;;;;;;;;;;;;17.31;96.13;99530.34;5042393;28;19916;-39
2023/05/20 03:34:37;;;;;;;;;;;;;;;17.01;97.21;99541.41;5042260;28;19916;-39
2023/05/20 03:37:02;;;;;;;;;;;;;;;17.50;96.83;99523.28;5042813;28;19916;-39
2023/05/20 03:39:27;;;;;;;;;;;;;;;16.79;100.00;99558.97;5024097;28;19916;-39
2023/05/20 03:41:53;;;;;;;;;;;;;;;17.06;100.00;99535.97;5042384;28;20027;-39
2023/05/20 03:44:18;;;;;;;;;;;;;;;18.46;97.92;99508.59;5024741;28;20012;-39
2023/05/20 03:46:43;;;;;;;;;;;;;;;17.19;99.01;99531.00;5042549;28;19959;-39
2023/05/20 03:49:09;;;;;;;;;;;;;;;16.41;100.00;99549.47;5042333;28;19948;-39
2023/05/20 03:51:34;;;;;;;;;;;;;;;17.54;100.00;99537.00;5041061;28;19921;-39
2023/05/20 03:54:00;;;;;;;;;;;;;;;18.37;96.41;99490.84;5042115;28;19966;-39
2023/05/20 03:56:25;;;;;;;;;;;;;;;18.14;94.61;99502.56;5042450;28;19921;-39
2023/05/20 03:58:50;;;;;;;;;;;;;;;18.41;96.21;99501.97;5041493;28;20377;-39
2023/05/20 04:01:16;;;;;;;;;;;;;;;17.66;96.87;99519.91;5041449;28;19925;-39
2023/05/20 04:03:41;;;;;;;;;;;;;;;17.92;95.60;99506.31;5041939;28;20949;-39
2023/05/20 04:06:06;;;;;;;;;;;;;;;16.86;95.84;99530.00;5041726;28;19917;-39
2023/05/20 04:08:31;;;;;;;;;;;;;;;17.56;100.00;99540.34;5042075;28;19948;-39
2023/05/20 04:10:57;;;;;;;;;;;;;;;18.34;97.87;99511.91;5042278;28;19928;-40
2023/05/20 04:13:24;;;;;;;;;;;;;;;19.30;91.79;99460.25;5041751;28;20267;-39
2023/05/20 04:15:50;;;;;;;;;;;;;;;19.26;93.36;99482.25;5041809;28;19923;-39
2023/05/20 04:18:15;;;;;;;;;;;;;;;19.08;92.17;99481.59;5041770;28;19917;-39
2023/05/20 04:20:41;;;;;;;;;;;;;;;18.68;92.65;99494.31;5022254;28;19928;-39
2023/05/20 04:23:06;;;;;;;;;;;;;;;18.80;90.82;99476.22;5041174;28;19928;-39
2023/05/20 04:25:32;;;;;;;;;;;;;;;18.50;93.34;99498.84;5041443;28;19970;-39
2023/05/20 04:27:58;;;;;;;;;;;;;;;17.63;93.36;99494.00;5041062;28;19917;-39
2023/05/20 04:30:23;;;;;;;;;;;;;;;17.35;98.57;99527.53;5041138;28;19916;-39
2023/05/20 04:32:49;;;;;;;;;;;;;;;16.84;98.52;99526.63;5040519;28;19917;-39
2023/05/20 04:35:15;;;;;;;;;;;;;;;18.16;96.49;99503.31;5022402;28;19978;-39
2023/05/20 04:37:41;;;;;;;;;;;;;;;18.77;93.29;99481.63;5041273;28;19946;-39
2023/05/20 04:40:08;;;;;;;;;;;;;;;19.09;93.39;99473.66;5040311;28;19917;-39
2023/05/20 04:42:33;;;;;;;;;;;;;;;16.91;99.53;99532.38;5039122;28;19974;-39
2023/05/20 04:45:00;;;;;;;;;;;;;;;17.04;100.00;99527.44;5039786;28;20332;-39
2023/05/20 04:47:29;;;;;;;;;;;;;;;16.75;100.00;99537.47;5039419;28;20740;-39
2023/05/20 04:49:56;;;;;;;;;;;;;;;16.80;100.00;99542.47;5040797;28;19920;-39
2023/05/20 04:52:22;;;;;;;;;;;;;;;16.55;100.00;99554.03;5038756;28;19917;-39
2023/05/20 04:54:49;;;;;;;;;;;;;;;16.62;100.00;99558.00;5040486;28;19921;-39
2023/05/20 04:57:15;;;;;;;;;;;;;;;16.08;100.00;99565.72;5038129;28;19987;-39
2023/05/20 04:59:40;;;;;;;;;;;;;;;16.73;100.00;99555.75;5021229;28;19968;-39
2023/05/20 05:02:06;;;;;;;;;;;;;;;17.92;100.00;99524.56;5040771;28;20015;-39
2023/05/20 05:04:31;;;;;;;;;;;;;;;17.31;100.00;99538.16;5039435;28;19960;-39
2023/05/20 05:06:56;;;;;;;;;;;;;;;15.99;100.00;99557.53;5040200;28;19917;-40
2023/05/20 05:09:21;;;;;;;;;;;;;;;17.07;100.00;99528.09;5040974;28;19974;-39
2023/05/20 05:11:46;;;;;;;;;;;;;;;17.03;100.00;99547.38;5040130;28;19917;-39
2023/05/20 05:14:12;;;;;;;;;;;;;;;16.41;100.00;99549.47;5039823;28;20019;-39
2023/05/20 05:16:37;;;;;;;;;;;;;;;17.84;100.00;99531.97;5038579;28;20011;-39
2023/05/20 05:19:02;;;;;;;;;;;;;;;18.48;100.00;99506.72;5039551;28;19920;-40
2023/05/20 05:21:27;;;;;;;;;;;;;;;18.22;100.00;99518.59;5040325;28;19975;-39
2023/05/20 05:23:53;;;;;;;;;;;;;;;17.88;100.00;99530.03;5039695;28;19917;-39
2023/05/20 05:26:18;;;;;;;;;;;;;;;16.53;100.00;99576.66;5039411;28;19921;-40
2023/05/20 05:28:43;;;;;;;;;;;;;;;16.31;100.00;99569.03;5039732;28;19921;-40
2023/05/20 05:31:08;;;;;;;;;;;;;;;17.39;100.00;99536.03;5039412;28;19913;-40
2023/05/20 05:33:34;;;;;;;;;;;;;;;17.25;100.00;99554.13;5040794;28;19970;-40
2023/05/20 05:36:00;;;;;;;;;;;;;;;16.77;100.00;99545.19;5041395;28;19916;-39
2023/05/20 05:38:25;;;;;;;;;;;;;;;15.58;100.00;99591.31;5038979;28;19920;-39
2023/05/20 05:40:51;;;;;;;;;;;;;;;16.77;100.00;99566.00;5038203;28;19917;-39
2023/05/20 05:43:16;;;;;;;;;;;;;;;16.39;100.00;99569.50;5039844;28;19970;-39
2023/05/20 05:45:42;;;;;;;;;;;;;;;16.37;100.00;99573.94;5039248;28;19916;-39
2023/05/20 05:48:07;;;;;;;;;;;;;;;16.76;100.00;99569.50;5038322;28;19966;-39
2023/05/20 05:50:32;;;;;;;;;;;;;;;17.37;100.00;99544.84;5039439;28;19921;-39
2023/05/20 05:52:57;;;;;;;;;;;;;;;16.61;100.00;99564.13;5037256;28;20030;-39
2023/05/20 05:55:23;;;;;;;;;;;;;;;17.46;100.00;99544.38;5039368;28;19955;-40
2023/05/20 05:57:48;;;;;;;;;;;;;;;17.22;100.00;99554.25;5039202;28;20043;-40
2023/05/20 06:00:13;;;;;;;;;;;;;;;16.73;100.00;99550.53;5039232;28;19913;-39
2023/05/20 06:02:39;;;;;;;;;;;;;;;17.26;100.00;99547.97;5037234;28;20463;-39
2023/05/20 06:05:04;;;;;;;;;;;;;;;17.39;100.00;99524.78;5036718;28;20024;-39
2023/05/20 06:07:30;;;;;;;;;;;;;;;17.90;100.00;99528.19;5038632;28;19955;-39
2023/05/20 06:09:55;;;;;;;;;;;;;;;18.05;100.00;99513.50;5038027;28;19994;-39
2023/05/20 06:12:20;;;;;;;;;;;;;;;18.14;100.00;99498.19;5037394;28;19928;-39
2023/05/20 06:14:46;;;;;;;;;;;;;;;16.20;100.00;99551.34;5038001;28;20636;-39
2023/05/20 06:17:11;;;;;;;;;;;;;;;17.67;100.00;99531.97;5036721;28;20669;-39
2023/05/20 06:19:37;;;;;;;;;;;;;;;17.63;100.00;99525.25;5038457;28;20297;-39
2023/05/20 06:22:02;;;;;;;;;;;;;;;16.87;100.00;99538.66;5038244;28;20007;-39
2023/05/20 06:24:27;;;;;;;;;;;;;;;16.94;100.00;99537.44;5037494;28;20095;-39
2023/05/20 06:26:52;;;;;;;;;;;;;;;16.37;100.00;99542.72;5038021;28;20901;-39
2023/05/20 06:29:17;;;;;;;;;;;;;;;16.33;100.00;99529.97;5038453;28;20366;-39
2023/05/20 06:31:43;;;;;;;;;;;;;;;17.63;100.00;99531.31;5040664;28;19921;-39
2023/05/20 06:34:08;;;;;;;;;;;;;;;16.94;100.00;99540.03;5039605;28;20325;-39
2023/05/20 06:36:33;;;;;;;;;;;;;;;16.86;100.00;99543.03;5039402;28;20600;-39
2023/05/20 06:38:59;;;;;;;;;;;;;;;17.38;100.00;99536.97;5038453;28;19948;-40
2023/05/20 06:41:25;;;;;;;;;;;;;;;16.85;100.00;99543.09;5039465;28;19964;-40
2023/05/20 06:43:50;;;;;;;;;;;;;;;17.17;100.00;99536.28;5037644;28;20294;-41
2023/05/20 06:46:15;;;;;;;;;;;;;;;17.41;100.00;99534.19;5039374;28;19931;-40
2023/05/20 06:48:41;;;;;;;;;;;;;;;17.59;100.00;99528.97;5038222;28;20079;-39
2023/05/20 06:51:06;;;;;;;;;;;;;;;16.61;100.00;99551.13;5038035;28;19959;-39
2023/05/20 06:53:32;;;;;;;;;;;;;;;18.23;100.00;99499.44;5021482;28;19920;-40
2023/05/20 06:55:57;;;;;;;;;;;;;;;17.33;100.00;99536.34;5038805;28;19921;-39
2023/05/20 06:58:22;;;;;;;;;;;;;;;19.45;100.00;99474.97;5039088;28;19923;-39
2023/05/20 07:00:47;;;;;;;;;;;;;;;18.18;100.00;99497.09;5038790;28;19944;-40
2023/05/20 07:03:13;;;;;;;;;;;;;;;18.16;100.00;99493.72;5039017;28;19925;-39
2023/05/20 07:05:38;;;;;;;;;;;;;;;17.83;100.00;99512.03;5041692;28;19917;-39
2023/05/20 07:08:03;;;;;;;;;;;;;;;17.97;100.00;99504.34;5041694;28;20398;-39
2023/05/20 07:10:28;;;;;;;;;;;;;;;17.95;100.00;99500.13;5041902;28;20533;-39
2023/05/20 07:12:53;;;;;;;;;;;;;;;15.65;100.00;99569.38;5039627;28;19917;-39
2023/05/20 07:15:19;;;;;;;;;;;;;;;17.12;100.00;99541.72;5042501;28;19924;-39
2023/05/20 07:17:44;;;;;;;;;;;;;;;17.54;100.00;99537.00;5041380;28;19963;-40
2023/05/20 07:20:09;;;;;;;;;;;;;;;16.72;100.00;99535.84;5044141;28;19948;-39
2023/05/20 07:22:34;;;;;;;;;;;;;;;17.85;100.00;99531.03;5042868;28;19979;-40
2023/05/20 07:25:00;;;;;;;;;;;;;;;17.40;100.00;99535.09;5043281;28;20007;-39
2023/05/20 07:27:25;;;;;;;;;;;;;;;17.48;100.00;99524.31;5043350;28;19932;-39
2023/05/20 07:29:50;;;;;;;;;;;;;;;19.20;100.00;99480.84;5043996;28;19996;-39
2023/05/20 07:32:15;;;;;;;;;;;;;;;16.78;100.00;99510.47;5043111;28;19963;-39
2023/05/20 07:34:41;;;;;;;;;;;;;;;17.70;100.00;99492.78;5043119;28;19988;-40
2023/05/20 07:37:06;;;;;;;;;;;;;;;18.60;100.00;99502.59;5042455;28;19963;-39
2023/05/20 07:39:31;;;;;;;;;;;;;;;18.73;100.00;99477.47;5042216;28;19956;-40
2023/05/20 07:41:56;;;;;;;;;;;;;;;19.63;100.00;99460.78;5042605;28;20016;-39
2023/05/20 07:44:22;;;;;;;;;;;;;;;18.23;100.00;99491.63;5041999;28;19999;-39
2023/05/20 07:46:47;;;;;;;;;;;;;;;18.36;100.00;99505.66;5041588;28;20028;-40
2023/05/20 07:49:12;;;;;;;;;;;;;;;18.19;100.00;99500.53;5042267;28;19917;-40
2023/05/20 07:51:38;;;;;;;;;;;;;;;19.27;100.00;99482.16;5041083;28;19920;-40
2023/05/20 07:54:03;;;;;;;;;;;;;;;19.44;100.00;99453.25;5042017;28;20316;-39
2023/05/20 07:56:28;;;;;;;;;;;;;;;18.10;100.00;99498.44;5042584;28;19970;-39
2023/05/20 07:58:54;;;;;;;;;;;;;;;18.34;100.00;99493.63;5022432;28;19924;-39
2023/05/20 08:01:20;;;;;;;;;;;;;;;18.85;100.00;99473.34;5042483;28;20057;-39
2023/05/20 08:03:45;;;;;;;;;;;;;;;18.54;100.00;99497.72;5023402;28;20020;-39
2023/05/20 08:06:10;;;;;;;;;;;;;;;18.75;100.00;99496.50;5041784;28;19920;-40
2023/05/20 08:08:35;;;;;;;;;;;;;;;18.59;100.00;99490.47;5042319;28;19917;-40
2023/05/20 08:11:01;;;;;;;;;;;;;;;18.96;100.00;99506.66;5042337;28;19967;-39
2023/05/20 08:13:26;;;;;;;;;;;;;;;18.72;100.00;99507.09;5040624;28;19920;-39
2023/05/20 08:15:52;;;;;;;;;;;;;;;19.58;100.00;99460.22;5040873;28;19917;-39
2023/05/20 08:18:17;;;;;;;;;;;;;;;17.93;100.00;99517.63;5023155;28;19920;-39
2023/05/20 08:20:42;;;;;;;;;;;;;;;19.32;100.00;99493.19;5042342;28;19917;-39
2023/05/20 08:23:08;;;;;;;;;;;;;;;18.51;100.00;99477.03;5041782;28;19920;-39
2023/05/20 08:25:33;;;;;;;;;;;;;;;19.28;100.00;99488.22;5039893;28;19967;-40
2023/05/20 08:28:00;;;;;;;;;;;;;;;18.36;100.00;99499.63;5042400;28;19924;-40
2023/05/20 08:30:26;;;;;;;;;;;;;;;19.06;100.00;99470.38;5041163;28;19913;-40
2023/05/20 08:32:51;;;;;;;;;;;;;;;17.29;100.00;99509.63;5041878;28;19924;-39
2023/05/20 08:35:16;;;;;;;;;;;;;;;18.69;100.00;99496.84;5040166;28;19920;-39
2023/05/20 08:37:42;;;;;;;;;;;;;;;17.87;100.00;99513.56;5041817;28;19985;-39
2023/05/20 08:40:08;;;;;;;;;;;;;;;18.52;100.00;99479.56;5042888;28;20657;-39
2023/05/20 08:42:34;;;;;;;;;;;;;;;19.28;100.00;99464.72;5040684;28;20437;-40
2023/05/20 08:44:59;;;;;;;;;;;;;;;18.28;100.00;99489.59;5041380;28;19916;-40
2023/05/20 08:47:25;;;;;;;;;;;;;;;17.61;100.00;99527.94;5023056;28;19919;-40
2023/05/20 08:49:50;;;;;;;;;;;;;;;19.89;100.00;99471.44;5021564;28;20054;-40
2023/05/20 08:52:15;;;;;;;;;;;;;;;19.36;100.00;99481.63;5023012;28;20948;-39
2023/05/20 08:54:44;;;;;;;;;;;;;;;20.59;100.00;99426.78;5023315;28;19956;-40
2023/05/20 08:57:12;;;;;;;;;;;;;;;20.11;100.00;99441.28;5040181;28;19917;-40
2023/05/20 08:59:38;;;;;;;;;;;;;;;18.68;100.00;99476.91;5040626;28;19913;-39
2023/05/20 09:02:03;;;;;;;;;;;;;;;19.97;100.00;99447.41;5040282;28;20469;-39
2023/05/20 09:04:28;;;;;;;;;;;;;;;19.52;100.00;99429.25;5041385;28;19962;-39
2023/05/20 09:06:54;;;;;;;;;;;;;;;20.19;100.00;99434.63;5040149;28;19916;-39
2023/05/20 09:09:19;;;;;;;;;;;;;;;19.93;100.00;99425.00;5040666;28;19940;-39
2023/05/20 09:11:45;;;;;;;;;;;;;;;20.00;100.00;99428.91;5040462;28;20378;-39
2023/05/20 09:14:10;;;;;;;;;;;;;;;19.39;100.00;99433.56;5040762;28;20420;-39
2023/05/20 09:16:35;;;;;;;;;;;;;;;20.13;100.00;99439.41;5040501;28;19927;-40
2023/05/20 09:19:00;;;;;;;;;;;;;;;19.59;100.00;99417.50;5040607;28;19935;-39
2023/05/20 09:21:26;;;;;;;;;;;;;;;20.29;100.00;99416.56;5040665;28;20371;-40
2023/05/20 09:23:52;;;;;;;;;;;;;;;20.44;100.00;99423.41;5040423;28;20320;-39
2023/05/20 09:26:18;;;;;;;;;;;;;;;20.30;100.00;99427.84;5039522;28;20003;-39
2023/05/20 09:28:43;;;;;;;;;;;;;;;19.62;100.00;99445.22;5040356;28;20188;-40
2023/05/20 09:31:08;;;;;;;;;;;;;;;19.67;100.00;99426.63;5039900;28;19916;-39
2023/05/20 09:33:34;;;;;;;;;;;;;;;20.86;100.00;99411.00;5039312;28;19928;-39
2023/05/20 09:36:09;;;;;;;;;;;;;;;21.54;100.00;99398.50;5039725;28;19920;-39
2023/05/20 09:38:37;;;;;;;;;;;;;;;22.06;100.00;99376.38;5040467;28;19917;-40
2023/05/20 09:41:03;;;;;;;;;;;;;;;21.57;100.00;99377.31;5041152;28;20102;-39
2023/05/20 09:43:28;;;;;;;;;;;;;;;21.65;100.00;99398.59;5021407;28;20020;-40
2023/05/20 09:45:54;;;;;;;;;;;;;;;21.09;100.00;99404.19;5040123;28;19921;-39
2023/05/20 09:48:19;;;;;;;;;;;;;;;20.64;100.00;99436.97;5040086;28;19916;-39
2023/05/20 09:50:44;;;;;;;;;;;;;;;22.09;100.00;99389.28;5019750;28;20919;-39
2023/05/20 09:53:09;;;;;;;;;;;;;;;22.51;100.00;99379.19;5021807;28;20345;-40
2023/05/20 09:55:35;;;;;;;;;;;;;;;23.10;100.00;99348.47;5021430;28;20496;-39
2023/05/20 09:58:01;;;;;;;;;;;;;;;23.93;99.27;99326.09;5006540;28;19974;-39
2023/05/20 10:00:26;;;;;;;;;;;;;;;24.05;99.30;99332.97;5021550;28;19925;-40
2023/05/20 10:02:51;;;;;;;;;;;;;;;23.20;95.45;99323.16;5038346;28;19935;-40
2023/05/20 10:05:18;;;;;;;;;;;;;;;22.44;99.66;99343.00;5022016;28;20382;-39
2023/05/20 10:08:02;;;;;;;;;;;;;;;22.67;100.00;99347.38;5021908;28;19935;-39
2023/05/20 10:10:27;;;;;;;;;;;;;;;22.82;99.17;99336.63;5039547;28;20173;-39
2023/05/20 10:12:52;;;;;;;;;;;;;;;22.83;100.00;99352.28;5036340;28;20414;-39
2023/05/20 10:15:17;;;;;;;;;;;;;;;;;;5020519;28;19913;-39
2023/05/20 10:17:45;;;;;;;;;;;;;;;25.41;90.90;99278.31;5038876;28;19916;-39
2023/05/20 10:20:13;;;;;;;;;;;;;;;24.88;92.13;99306.72;5004231;28;19921;-39
2023/05/20 10:22:44;;;;;;;;;;;;;;;23.26;96.00;99343.66;5020593;28;19921;-39
2023/05/20 10:25:11;;;;;;;;;;;;;;;23.15;96.86;99323.53;5037550;28;20004;-39
2023/05/20 10:27:44;;;;;;;;;;;;;;;23.68;97.68;99317.53;5038023;28;19920;-39
2023/05/20 10:30:19;;;;;;;;;;;;;;;21.78;99.87;99358.38;5039017;28;20393;-39
2023/05/20 10:32:52;;;;;;;;;;;;;;;22.31;100.00;99343.94;5038964;28;19920;-39
2023/05/20 10:35:20;;;;;;;;;;;;;;;23.29;96.38;99319.78;5039736;28;19951;-39
2023/05/20 10:37:46;;;;;;;;;;;;;;;23.84;94.52;99295.28;5022492;28;20321;-39
2023/05/20 10:40:12;;;;;;;;;;;;;;;24.34;94.18;99287.59;5041634;28;20367;-39
2023/05/20 10:42:38;;;;;;;;;;;;;;;21.63;98.59;99342.81;5042250;28;20472;-39
2023/05/20 10:45:03;;;;;;;;;;;;;;;22.55;96.34;99311.53;5043109;28;19963;-39
2023/05/20 10:47:29;;;;;;;;;;;;;;;22.42;95.90;99311.66;5043882;28;19971;-39
2023/05/20 10:49:55;;;;;;;;;;;;;;;23.20;96.08;99312.66;5024023;28;19970;-39
2023/05/20 10:52:20;;;;;;;;;;;;;;;23.04;96.23;99297.25;5042068;28;19921;-39
2023/05/20 10:54:54;;;;;;;;;;;;;;;23.69;94.85;99287.63;5042934;28;19982;-39
2023/05/20 10:57:20;;;;;;;;;;;;;;;23.90;94.90;99292.13;5042816;28;20549;-39
2023/05/20 10:59:46;;;;;;;;;;;;;;;23.37;91.40;99266.59;5042123;28;19931;-39
2023/05/20 11:02:12;;;;;;;;;;;;;;;24.38;93.42;99283.72;5020040;28;20473;-39
2023/05/20 11:04:37;;;;;;;;;;;;;;;23.92;95.71;99298.94;5040902;28;19917;-39
2023/05/20 11:07:02;;;;;;;;;;;;;;;23.97;95.54;99288.03;5023971;28;19921;-39
2023/05/20 11:09:30;;;;;;;;;;;;;;;23.31;96.60;99293.38;5040111;28;19947;-39
2023/05/20 11:11:55;;;;;;;;;;;;;;;23.56;96.18;99292.22;5044036;28;19920;-39
2023/05/20 11:14:20;;;;;;;;;;;;;;;22.77;98.33;99315.97;5025330;28;19913;-39
2023/05/20 11:16:45;;;;;;;;;;;;;;;23.88;95.10;99268.59;5024467;28;19917;-39
2023/05/20 11:19:15;;;;;;;;;;;;;;;23.84;96.14;99295.28;5025429;28;19920;-39
2023/05/20 11:21:44;;;;;;;;;;;;;;;22.96;97.33;99307.50;5024897;28;20613;-39
2023/05/20 11:24:09;;;;;;;;;;;;;;;23.82;95.68;99286.69;5043076;28;19917;-39
2023/05/20 11:26:34;;;;;;;;;;;;;;;24.05;97.07;99304.03;5042135;28;20286;-39
2023/05/20 11:29:00;;;;;;;;;;;;;;;23.71;91.87;99269.94;5022726;28;19931;-39
2023/05/20 11:31:25;;;;;;;;;;;;;;;22.94;94.44;99289.25;5025014;28;20196;-39
2023/05/20 11:33:51;;;;;;;;;;;;;;;22.49;96.52;99281.38;5023272;28;20274;-39
2023/05/20 11:36:16;;;;;;;;;;;;;;;23.27;97.03;99281.47;5043027;28;19929;-39
2023/05/20 11:38:41;;;;;;;;;;;;;;;23.83;96.33;99277.81;5042271;28;19927;-39
2023/05/20 11:41:06;;;;;;;;;;;;;;;25.89;89.34;99223.91;5039490;28;19921;-39
2023/05/20 11:43:32;;;;;;;;;;;;;;;21.81;95.96;99301.31;5022132;28;19936;-39
2023/05/20 11:46:00;;;;;;;;;;;;;;;23.35;96.08;99264.09;5038071;28;19932;-39
2023/05/20 11:48:25;;;;;;;;;;;;;;;23.20;98.12;99278.50;5022215;28;20390;-41
2023/05/20 11:50:52;;;;;;;;;;;;;;;23.46;98.42;99272.91;5037541;28;19946;-40
2023/05/20 11:53:17;;;;;;;;;;;;;;;23.75;95.93;99249.53;5040333;28;19927;-39
2023/05/20 11:55:46;;;;;;;;;;;;;;;23.92;95.78;99251.56;5041433;28;20379;-39
2023/05/20 11:58:14;;;;;;;;;;;;;;;23.66;96.16;99272.13;5005271;28;20278;-39
2023/05/20 12:00:39;;;;;;;;;;;;;;;21.92;99.07;99287.41;5021864;28;19999;-39
2023/05/20 12:03:05;;;;;;;;;;;;;;;22.70;100.00;99278.03;5005467;28;19931;-39
2023/05/20 12:05:30;;;;;;;;;;;;;;;23.45;100.00;99266.00;5020783;28;19925;-39
2023/05/20 12:07:55;;;;;;;;;;;;;;;22.12;98.64;99280.66;5038377;28;20020;-39
2023/05/20 12:10:20;;;;;;;;;;;;;;;21.07;100.00;99317.06;5022358;28;20378;-39
2023/05/20 12:12:46;;;;;;;;;;;;;;;22.01;100.00;99296.34;5024592;28;20656;-39
2023/05/20 12:15:11;;;;;;;;;;;;;;;21.97;100.00;99281.81;5041232;28;19920;-39
2023/05/20 12:17:47;;;;;;;;;;;;;;;23.05;100.00;99271.81;5041676;28;19917;-39
2023/05/20 12:20:13;;;;;;;;;;;;;;;22.45;100.00;99287.78;5039853;28;19916;-39
2023/05/20 12:22:39;;;;;;;;;;;;;;;23.24;98.78;99266.78;5041281;28;19981;-39
2023/05/20 12:25:04;;;;;;;;;;;;;;;21.64;100.00;99304.31;5040940;28;19948;-39
2023/05/20 12:27:29;;;;;;;;;;;;;;;21.89;100.00;99290.25;5022970;28;19959;-39
2023/05/20 12:29:55;;;;;;;;;;;;;;;21.84;100.00;99287.13;5006731;28;19920;-39
2023/05/20 12:32:20;;;;;;;;;;;;;;;22.46;99.12;99255.34;5024791;28;19943;-39
2023/05/20 12:34:45;;;;;;;;;;;;;;;22.16;100.00;99268.16;5041423;28;19920;-39